createdAt,value
2023-05-02T00:02:09.960Z,11.80
2023-05-02T00:04:38.426Z,11.70
2023-05-02T00:07:20.994Z,11.70
2023-05-02T00:09:58.388Z,11.70
2023-05-02T00:12:31.136Z,11.70
2023-05-02T00:14:59.324Z,11.70
2023-05-02T00:17:27.590Z,11.80
2023-05-02T00:19:58.450Z,11.70
2023-05-02T00:22:28.453Z,11.70
2023-05-02T00:24:58.475Z,11.70
2023-05-02T00:27:28.016Z,11.80
2023-05-02T00:29:59.473Z,11.70
2023-05-02T00:32:28.345Z,11.70
2023-05-02T00:34:57.050Z,11.70
2023-05-02T00:37:28.690Z,11.80
2023-05-02T00:40:00.485Z,11.70
2023-05-02T00:42:31.673Z,11.80
2023-05-02T00:45:06.919Z,11.80
2023-05-02T00:47:35.461Z,11.80
2023-05-02T00:50:06.828Z,11.80
2023-05-02T00:52:38.377Z,11.80
2023-05-02T00:55:10.375Z,11.80
2023-05-02T00:57:39.948Z,11.80
2023-05-02T01:00:10.713Z,11.90
2023-05-02T01:02:50.132Z,11.90
2023-05-02T01:05:22.309Z,11.90
2023-05-02T01:08:12.716Z,11.90
2023-05-02T01:10:50.179Z,11.90
2023-05-02T01:13:25.901Z,11.90
2023-05-02T01:15:56.068Z,11.80
2023-05-02T01:18:27.373Z,11.80
2023-05-02T01:21:03.520Z,11.80
2023-05-02T01:23:39.446Z,11.80
2023-05-02T01:26:17.641Z,11.80
2023-05-02T01:28:59.486Z,11.80
2023-05-02T01:31:33.541Z,11.80
2023-05-02T01:34:03.601Z,11.80
2023-05-02T01:36:33.866Z,11.80
2023-05-02T01:39:03.577Z,11.80
2023-05-02T01:41:33.548Z,11.80
2023-05-02T01:44:04.688Z,11.80
2023-05-02T01:46:35.489Z,11.80
2023-05-02T01:49:07.110Z,11.70
2023-05-02T01:51:37.406Z,11.70
2023-05-02T01:54:10.147Z,11.70
2023-05-02T01:56:40.461Z,11.70
2023-05-02T01:59:12.570Z,11.60
2023-05-02T02:01:43.629Z,11.60
2023-05-02T02:04:16.092Z,11.60
2023-05-02T02:06:49.968Z,11.60
2023-05-02T02:09:18.454Z,11.60
2023-05-02T02:12:00.268Z,11.60
2023-05-02T02:14:35.937Z,11.60
2023-05-02T02:17:12.814Z,11.50
2023-05-02T02:19:42.626Z,11.60
2023-05-02T02:22:14.690Z,11.50
2023-05-02T02:24:44.036Z,11.50
2023-05-02T02:27:12.184Z,11.50
2023-05-02T02:29:53.649Z,11.50
2023-05-02T02:32:21.921Z,11.50
2023-05-02T02:34:53.067Z,11.50
2023-05-02T02:37:32.311Z,11.50
2023-05-02T02:40:06.912Z,11.50
2023-05-02T02:42:41.058Z,11.50
2023-05-02T02:45:26.208Z,11.50
2023-05-02T02:48:08.496Z,11.50
2023-05-02T02:50:52.770Z,11.40
2023-05-02T02:53:27.191Z,11.40
2023-05-02T02:56:03.044Z,11.30
2023-05-02T02:58:51.263Z,11.30
2023-05-02T03:01:25.371Z,11.30
2023-05-02T03:03:56.593Z,11.30
2023-05-02T03:06:27.056Z,11.30
2023-05-02T03:08:56.611Z,11.20
2023-05-02T03:11:30.786Z,11.20
2023-05-02T03:14:11.883Z,11.20
2023-05-02T03:16:47.782Z,11.20
2023-05-02T03:19:21.538Z,11.10
2023-05-02T03:21:50.557Z,11.10
2023-05-02T03:24:23.159Z,11.10
2023-05-02T03:26:51.525Z,11.10
2023-05-02T03:29:25.753Z,11.10
2023-05-02T03:31:57.902Z,11.10
2023-05-02T03:34:26.656Z,11.00
2023-05-02T03:36:58.457Z,11.00
2023-05-02T03:39:27.307Z,11.00
2023-05-02T03:41:55.590Z,11.00
2023-05-02T03:44:25.608Z,11.00
2023-05-02T03:46:53.960Z,10.90
2023-05-02T03:49:23.699Z,11.00
2023-05-02T03:51:55.387Z,10.90
2023-05-02T03:54:33.819Z,11.00
2023-05-02T03:57:05.362Z,11.00
2023-05-02T03:59:35.247Z,11.00
2023-05-02T04:02:11.436Z,11.00
2023-05-02T04:04:48.522Z,11.10
2023-05-02T04:07:19.955Z,11.10
2023-05-02T04:09:59.266Z,11.10
2023-05-02T04:12:28.235Z,11.20
2023-05-02T04:15:23.058Z,11.20
2023-05-02T04:17:53.283Z,11.30
2023-05-02T04:20:23.639Z,11.30
2023-05-02T04:22:54.472Z,11.30
2023-05-02T04:25:24.378Z,11.30
2023-05-02T04:27:55.370Z,11.40
2023-05-02T04:30:25.141Z,11.40
2023-05-02T04:33:07.859Z,11.40
2023-05-02T04:35:42.928Z,11.50
2023-05-02T04:38:14.354Z,11.50
2023-05-02T04:40:44.974Z,11.60
2023-05-02T04:43:15.214Z,11.70
2023-05-02T04:45:58.771Z,11.70
2023-05-02T04:48:30.856Z,11.80
2023-05-02T04:51:00.700Z,11.80
2023-05-02T04:53:34.517Z,11.90
2023-05-02T04:56:02.796Z,11.90
2023-05-02T04:58:32.991Z,12.00
2023-05-02T05:01:04.333Z,12.00
2023-05-02T05:03:33.347Z,12.10
2023-05-02T05:06:03.728Z,12.20
2023-05-02T05:08:32.880Z,12.40
2023-05-02T05:11:01.873Z,12.50
2023-05-02T05:13:33.029Z,12.90
2023-05-02T05:16:02.166Z,13.30
2023-05-02T05:18:40.342Z,13.80
2023-05-02T05:21:14.920Z,14.60
2023-05-02T05:23:46.200Z,15.30
2023-05-02T05:26:18.636Z,16.10
2023-05-02T05:28:50.736Z,16.70
2023-05-02T05:31:31.351Z,17.30
2023-05-02T05:34:01.597Z,18.10
2023-05-02T05:36:32.496Z,18.80
2023-05-02T05:39:01.365Z,19.30
2023-05-02T05:41:30.682Z,19.80
2023-05-02T05:44:04.369Z,20.30
2023-05-02T05:46:36.181Z,20.80
2023-05-02T05:49:06.456Z,21.40
2023-05-02T05:51:37.057Z,22.00
2023-05-02T05:54:05.746Z,22.50
2023-05-02T05:56:34.102Z,22.40
2023-05-02T05:59:09.574Z,22.50
2023-05-02T06:01:38.205Z,22.40
2023-05-02T06:04:07.510Z,22.00
2023-05-02T06:06:40.273Z,22.50
2023-05-02T06:09:09.054Z,23.10
2023-05-02T06:11:40.452Z,23.50
2023-05-02T06:14:09.438Z,24.00
2023-05-02T06:16:38.080Z,24.70
2023-05-02T06:19:07.512Z,24.70
2023-05-02T06:21:39.216Z,24.60
2023-05-02T06:24:08.385Z,24.40
2023-05-02T06:26:36.759Z,24.10
2023-05-02T06:29:04.926Z,23.70
2023-05-02T06:31:33.164Z,23.90
2023-05-02T06:34:01.392Z,24.20
2023-05-02T06:36:30.028Z,24.60
2023-05-02T06:38:59.562Z,24.80
2023-05-02T06:41:27.752Z,24.90
2023-05-02T06:43:56.040Z,25.40
2023-05-02T06:46:30.877Z,26.30
2023-05-02T06:48:59.151Z,27.10
2023-05-02T06:51:27.833Z,27.50
2023-05-02T06:53:56.048Z,28.20
2023-05-02T06:56:28.983Z,28.40
2023-05-02T07:01:57.999Z,29.30
2023-05-02T07:04:26.404Z,29.50
2023-05-02T07:06:57.102Z,29.80
2023-05-02T07:09:25.428Z,30.00
2023-05-02T07:11:55.144Z,30.10
2023-05-02T07:14:32.690Z,30.70
2023-05-02T07:17:01.354Z,31.10
2023-05-02T07:19:38.597Z,31.20
2023-05-02T07:22:14.524Z,31.50
2023-05-02T07:24:43.648Z,32.30
2023-05-02T07:27:39.090Z,33.00
2023-05-02T07:30:11.050Z,33.80
2023-05-02T07:32:43.014Z,34.20
2023-05-02T07:35:14.635Z,34.50
2023-05-02T07:40:25.357Z,34.60
2023-05-02T07:42:55.213Z,34.70
2023-05-02T07:45:23.571Z,34.80
2023-05-02T07:47:51.802Z,34.80
2023-05-02T07:50:20.125Z,35.30
2023-05-02T07:52:48.324Z,35.80
2023-05-02T07:55:16.672Z,35.80
2023-05-02T07:57:44.970Z,35.40
2023-05-02T08:00:16.339Z,35.40
2023-05-02T08:02:45.482Z,35.40
2023-05-02T08:05:14.079Z,35.50
2023-05-02T08:07:44.902Z,35.40
2023-05-02T08:10:13.200Z,35.20
2023-05-02T08:12:41.769Z,35.40
2023-05-02T08:15:12.944Z,35.80
2023-05-02T08:17:44.882Z,36.00
2023-05-02T08:20:13.520Z,36.70
2023-05-02T08:22:41.724Z,37.00
2023-05-02T08:25:10.516Z,37.00
2023-05-02T08:27:38.769Z,37.00
2023-05-02T08:30:09.031Z,37.00
2023-05-02T08:32:38.134Z,37.00
2023-05-02T08:35:08.948Z,37.00
2023-05-02T08:37:40.894Z,37.00
2023-05-02T08:40:13.866Z,37.10
2023-05-02T08:42:45.034Z,37.00
2023-05-02T08:45:16.779Z,36.90
2023-05-02T08:47:46.911Z,36.80
2023-05-02T08:50:18.880Z,36.70
2023-05-02T08:52:48.144Z,36.70
2023-05-02T08:55:17.015Z,36.60
2023-05-02T08:57:45.569Z,36.70
2023-05-02T09:00:14.954Z,36.60
2023-05-02T09:02:58.281Z,36.50
2023-05-02T09:05:34.688Z,36.80
2023-05-02T09:08:03.002Z,36.60
2023-05-02T09:10:32.463Z,36.00
2023-05-02T09:13:31.985Z,36.00
2023-05-02T09:16:02.285Z,36.00
2023-05-02T09:18:32.175Z,35.90
2023-05-02T09:21:06.473Z,35.60
2023-05-02T09:23:42.806Z,35.20
2023-05-02T09:26:18.059Z,34.60
2023-05-02T09:28:47.910Z,33.60
2023-05-02T09:31:27.019Z,32.70
2023-05-02T09:34:10.623Z,32.00
2023-05-02T09:36:43.268Z,31.30
2023-05-02T09:39:13.685Z,30.60
2023-05-02T09:41:42.773Z,30.00
2023-05-02T09:44:15.470Z,29.50
2023-05-02T09:46:44.773Z,29.10
2023-05-02T09:49:14.777Z,28.80
2023-05-02T09:51:47.408Z,28.60
2023-05-02T09:54:16.073Z,28.50
2023-05-02T09:56:56.605Z,28.30
2023-05-02T09:59:26.001Z,28.20
2023-05-02T10:01:58.485Z,28.00
2023-05-02T10:04:27.858Z,27.70
2023-05-02T10:06:58.626Z,27.50
2023-05-02T10:09:28.350Z,27.20
2023-05-02T10:11:57.979Z,27.40
2023-05-02T10:14:29.544Z,27.50
2023-05-02T10:17:02.808Z,27.70
2023-05-02T10:19:42.953Z,27.70
2023-05-02T10:22:13.910Z,27.60
2023-05-02T10:24:43.000Z,27.50
2023-05-02T10:27:11.280Z,27.30
2023-05-02T10:29:41.743Z,27.30
2023-05-02T10:32:11.064Z,27.20
2023-05-02T10:34:41.496Z,27.10
2023-05-02T10:37:13.645Z,26.70
2023-05-02T10:39:41.897Z,26.50
2023-05-02T10:42:11.088Z,26.10
2023-05-02T10:44:41.285Z,25.70
2023-05-02T10:47:22.742Z,25.40
2023-05-02T10:49:52.510Z,25.20
2023-05-02T10:52:30.265Z,24.90
2023-05-02T10:55:19.430Z,24.60
2023-05-02T10:58:24.802Z,24.20
2023-05-02T11:00:55.460Z,23.80
2023-05-02T11:04:02.238Z,23.40
2023-05-02T11:06:33.549Z,23.10
2023-05-02T11:09:37.708Z,22.70
2023-05-02T11:12:06.518Z,22.40
2023-05-02T11:14:47.454Z,22.00
2023-05-02T11:17:16.127Z,21.70
2023-05-02T11:20:30.037Z,21.50
2023-05-02T11:23:22.888Z,21.20
2023-05-02T11:26:02.186Z,21.00
2023-05-02T11:28:48.449Z,20.70
2023-05-02T11:32:04.988Z,20.50
2023-05-02T11:34:43.826Z,20.30
2023-05-02T11:37:18.482Z,20.00
2023-05-02T11:39:47.695Z,19.90
2023-05-02T11:42:37.480Z,19.90
2023-05-02T11:45:07.902Z,19.90
2023-05-02T11:47:46.292Z,19.90
2023-05-02T11:50:14.678Z,19.90
2023-05-02T11:52:44.875Z,20.00
2023-05-02T11:55:15.936Z,20.20
2023-05-02T11:57:45.445Z,20.40
2023-05-02T12:00:15.249Z,20.40
2023-05-02T12:02:45.076Z,20.50
2023-05-02T12:05:14.581Z,20.60
2023-05-02T12:07:44.985Z,20.50
2023-05-02T12:10:14.585Z,20.60
2023-05-02T12:12:44.342Z,20.80
2023-05-02T12:15:14.257Z,21.10
2023-05-02T12:17:44.400Z,21.30
2023-05-02T12:20:17.129Z,21.70
2023-05-02T12:22:45.691Z,22.00
2023-05-02T12:25:14.034Z,22.30
2023-05-02T12:27:42.279Z,22.50
2023-05-02T12:30:26.151Z,22.70
2023-05-02T12:32:59.843Z,22.80
2023-05-02T12:35:28.676Z,22.90
2023-05-02T12:38:11.320Z,23.00
2023-05-02T12:40:41.121Z,23.00
2023-05-02T12:43:10.751Z,23.00
2023-05-02T12:45:41.753Z,23.00
2023-05-02T12:48:27.507Z,22.90
2023-05-02T12:50:56.535Z,22.90
2023-05-02T12:53:41.167Z,22.80
2023-05-02T12:56:10.526Z,22.80
2023-05-02T12:58:43.794Z,22.70
2023-05-02T13:01:16.175Z,22.60
2023-05-02T13:03:46.014Z,22.50
2023-05-02T13:06:14.369Z,22.40
2023-05-02T13:08:47.114Z,22.30
2023-05-02T13:11:15.754Z,22.20
2023-05-02T13:13:43.927Z,22.10
2023-05-02T13:16:12.246Z,22.00
2023-05-02T13:18:40.737Z,21.90
2023-05-02T13:21:10.336Z,21.90
2023-05-02T13:23:39.917Z,21.70
2023-05-02T13:26:08.141Z,21.80
2023-05-02T13:28:37.519Z,21.90
2023-05-02T13:31:06.196Z,22.00
2023-05-02T13:33:34.457Z,22.30
2023-05-02T13:36:02.585Z,22.50
2023-05-02T13:38:32.593Z,22.60
2023-05-02T13:41:00.768Z,22.70
2023-05-02T13:43:29.005Z,22.70
2023-05-02T13:45:57.610Z,22.70
2023-05-02T13:48:26.099Z,22.70
2023-05-02T13:50:54.298Z,22.70
2023-05-02T13:53:22.891Z,22.60
2023-05-02T13:55:52.503Z,22.60
2023-05-02T13:58:21.393Z,22.60
2023-05-02T14:00:49.675Z,22.50
2023-05-02T14:03:19.074Z,22.50
2023-05-02T14:05:47.327Z,22.40
2023-05-02T14:08:18.513Z,22.40
2023-05-02T14:10:47.209Z,22.40
2023-05-02T14:13:17.190Z,22.30
2023-05-02T14:15:46.797Z,22.20
2023-05-02T14:18:22.769Z,22.20
2023-05-02T14:20:53.948Z,22.20
2023-05-02T14:23:34.604Z,22.10
2023-05-02T14:26:04.408Z,22.20
2023-05-02T14:28:36.277Z,22.20
2023-05-02T14:31:06.319Z,22.20
2023-05-02T14:33:41.488Z,22.10
2023-05-02T14:36:13.203Z,22.10
2023-05-02T14:38:48.237Z,22.00
2023-05-02T14:41:17.640Z,22.00
2023-05-02T14:43:48.421Z,22.00
2023-05-02T14:46:20.455Z,21.80
2023-05-02T14:48:48.803Z,21.80
2023-05-02T14:51:17.038Z,21.70
2023-05-02T14:53:45.346Z,21.70
2023-05-02T14:56:15.954Z,21.60
2023-05-02T14:58:48.642Z,21.60
2023-05-02T15:01:18.346Z,21.50
2023-05-02T15:04:04.572Z,21.40
2023-05-02T15:06:35.251Z,21.40
2023-05-02T15:09:06.420Z,21.30
2023-05-02T15:11:34.654Z,21.30
2023-05-02T15:14:04.234Z,21.20
2023-05-02T15:16:32.461Z,21.20
2023-05-02T15:19:03.098Z,21.10
2023-05-02T15:21:32.095Z,21.10
2023-05-02T15:24:00.332Z,21.00
2023-05-02T15:26:28.803Z,21.00
2023-05-02T15:29:00.147Z,20.90
2023-05-02T15:31:29.924Z,20.90
2023-05-02T15:33:58.396Z,20.90
2023-05-02T15:36:29.063Z,20.90
2023-05-02T15:38:57.382Z,20.90
2023-05-02T15:41:27.174Z,20.80
2023-05-02T15:43:55.473Z,20.80
2023-05-02T15:46:23.736Z,20.80
2023-05-02T15:48:53.624Z,20.70
2023-05-02T15:51:24.494Z,20.60
2023-05-02T15:53:55.096Z,20.60
2023-05-02T15:56:23.371Z,20.50
2023-05-02T15:58:54.349Z,20.50
2023-05-02T16:01:24.211Z,20.60
2023-05-02T16:03:56.423Z,20.60
2023-05-02T16:06:27.879Z,20.60
2023-05-02T16:08:56.601Z,20.60
2023-05-02T16:11:24.860Z,20.50
2023-05-02T16:13:53.239Z,20.50
2023-05-02T16:16:21.666Z,20.40
2023-05-02T16:18:57.745Z,20.40
2023-05-02T16:21:26.169Z,20.40
2023-05-02T16:24:06.333Z,20.30
2023-05-02T16:26:34.732Z,20.30
2023-05-02T16:29:03.323Z,20.30
2023-05-02T16:31:36.905Z,20.20
2023-05-02T16:34:06.569Z,20.20
2023-05-02T16:36:36.907Z,20.10
2023-05-02T16:39:07.905Z,20.10
2023-05-02T16:41:37.107Z,20.00
2023-05-02T16:44:08.313Z,19.90
2023-05-02T16:46:39.604Z,19.90
2023-05-02T16:49:09.249Z,19.80
2023-05-02T16:51:37.607Z,19.80
2023-05-02T16:54:06.275Z,19.70
2023-05-02T16:56:34.610Z,19.60
2023-05-02T16:59:02.906Z,19.60
2023-05-02T17:01:31.212Z,19.40
2023-05-02T17:03:59.506Z,19.40
2023-05-02T17:06:29.340Z,19.30
2023-05-02T17:08:57.613Z,19.30
2023-05-02T17:11:26.809Z,19.20
2023-05-02T17:13:55.060Z,19.20
2023-05-02T17:16:23.295Z,19.10
2023-05-02T17:18:51.495Z,19.10
2023-05-02T17:21:20.107Z,19.00
2023-05-02T17:23:49.872Z,19.00
2023-05-02T17:26:21.137Z,18.90
2023-05-02T17:28:50.341Z,18.80
2023-05-02T17:31:19.080Z,18.70
2023-05-02T17:33:47.584Z,18.60
2023-05-02T17:36:16.081Z,18.60
2023-05-02T17:38:45.149Z,18.50
2023-05-02T17:41:15.424Z,18.40
2023-05-02T17:43:47.403Z,18.40
2023-05-02T17:46:16.077Z,18.30
2023-05-02T17:48:44.529Z,18.20
2023-05-02T17:51:12.917Z,18.30
2023-05-02T17:53:41.231Z,18.20
2023-05-02T17:56:10.638Z,18.10
2023-05-02T17:58:40.175Z,18.00
2023-05-02T18:01:13.996Z,18.00
2023-05-02T18:03:54.891Z,17.90
2023-05-02T18:06:23.378Z,17.80
2023-05-02T18:08:56.486Z,17.80
2023-05-02T18:11:26.802Z,17.70
2023-05-02T18:13:57.286Z,17.70
2023-05-02T18:16:25.623Z,17.60
2023-05-02T18:18:55.223Z,17.60
2023-05-02T18:21:28.259Z,17.50
2023-05-02T18:23:58.806Z,17.50
2023-05-02T18:26:27.022Z,17.50
2023-05-02T18:28:57.648Z,17.40
2023-05-02T18:31:26.378Z,17.50
2023-05-02T18:33:56.250Z,17.40
2023-05-02T18:36:29.480Z,17.50
2023-05-02T18:38:57.745Z,17.40
2023-05-02T18:41:25.990Z,17.50
2023-05-02T18:43:54.629Z,17.50
2023-05-02T18:46:22.817Z,17.50
2023-05-02T18:48:51.058Z,17.50
2023-05-02T18:51:20.877Z,17.50
2023-05-02T18:53:49.677Z,17.50
2023-05-02T18:56:18.079Z,17.50
2023-05-02T18:58:54.804Z,17.40
2023-05-02T19:01:28.032Z,17.40
2023-05-02T19:03:58.655Z,17.40
2023-05-02T19:06:31.589Z,17.40
2023-05-02T19:09:05.928Z,17.40
2023-05-02T19:11:34.176Z,17.40
2023-05-02T19:14:03.676Z,17.40
2023-05-02T19:16:32.015Z,17.40
2023-05-02T19:19:00.568Z,17.40
2023-05-02T19:21:30.259Z,17.30
2023-05-02T19:23:58.647Z,17.30
2023-05-02T19:26:27.088Z,17.20
2023-05-02T19:28:58.286Z,17.10
2023-05-02T19:31:39.670Z,17.00
2023-05-02T19:34:19.573Z,17.00
2023-05-02T19:36:52.242Z,16.90
2023-05-02T19:39:20.736Z,16.90
2023-05-02T19:41:50.036Z,16.80
2023-05-02T19:44:18.392Z,16.80
2023-05-02T19:46:46.589Z,16.70
2023-05-02T19:49:14.772Z,16.60
2023-05-02T19:51:43.084Z,16.60
2023-05-02T19:54:12.793Z,16.50
2023-05-02T19:56:42.267Z,16.40
2023-05-02T19:59:10.493Z,16.30
2023-05-02T20:01:38.717Z,16.20
2023-05-02T20:04:07.089Z,16.20
2023-05-02T20:06:35.439Z,16.20
2023-05-02T20:09:03.797Z,16.20
2023-05-02T20:11:33.307Z,16.10
2023-05-02T20:14:01.474Z,16.00
2023-05-02T20:16:31.478Z,16.00
2023-05-02T20:18:59.909Z,16.00
2023-05-02T20:21:27.995Z,16.00
2023-05-02T20:23:56.219Z,16.00
2023-05-02T20:26:24.385Z,15.90
2023-05-02T20:28:54.094Z,15.80
2023-05-02T20:31:22.444Z,15.80
2023-05-02T20:33:51.199Z,15.80
2023-05-02T20:36:19.394Z,15.70
2023-05-02T20:38:48.801Z,15.70
2023-05-02T20:41:17.771Z,15.60
2023-05-02T20:43:48.580Z,15.60
2023-05-02T20:46:21.272Z,15.60
2023-05-02T20:48:49.578Z,15.50
2023-05-02T20:51:17.766Z,15.40
2023-05-02T20:53:45.973Z,15.40
2023-05-02T20:56:14.312Z,15.30
2023-05-02T20:58:42.514Z,15.30
2023-05-02T21:01:11.657Z,15.20
2023-05-02T21:03:41.354Z,15.20
2023-05-02T21:06:09.675Z,15.20
2023-05-02T21:08:37.951Z,15.20
2023-05-02T21:11:13.909Z,15.20
2023-05-02T21:13:42.183Z,15.10
2023-05-02T21:16:17.625Z,15.10
2023-05-02T21:18:47.964Z,15.00
2023-05-02T21:21:16.241Z,14.90
2023-05-02T21:23:44.846Z,14.80
2023-05-02T21:26:13.253Z,14.70
2023-05-02T21:28:41.583Z,14.60
2023-05-02T21:31:09.864Z,14.60
2023-05-02T21:33:38.272Z,14.50
2023-05-02T21:36:08.474Z,14.50
2023-05-02T21:38:36.700Z,14.40
2023-05-02T21:41:05.982Z,14.40
2023-05-02T21:43:37.908Z,14.40
2023-05-02T21:46:06.241Z,14.40
2023-05-02T21:48:34.971Z,14.30
2023-05-02T21:51:09.080Z,14.20
2023-05-02T21:53:37.421Z,14.20
2023-05-02T21:56:07.069Z,14.20
2023-05-02T21:58:35.443Z,14.10
2023-05-02T22:01:03.730Z,14.10
2023-05-02T22:03:33.856Z,14.00
2023-05-02T22:06:06.047Z,13.90
2023-05-02T22:08:36.363Z,13.90
2023-05-02T22:11:09.343Z,13.80
2023-05-02T22:13:37.974Z,13.80
2023-05-02T22:16:08.152Z,13.80
2023-05-02T22:18:37.030Z,13.70
2023-05-02T22:21:05.389Z,13.70
2023-05-02T22:23:34.934Z,13.60
2023-05-02T22:26:03.075Z,13.60
2023-05-02T22:28:31.371Z,13.50
2023-05-02T22:30:59.525Z,13.50
2023-05-02T22:33:27.707Z,13.50
2023-05-02T22:35:57.011Z,13.40
2023-05-02T22:38:25.222Z,13.40
2023-05-02T22:40:54.820Z,13.40
2023-05-02T22:43:22.994Z,13.40
2023-05-02T22:45:51.336Z,13.40
2023-05-02T22:48:19.635Z,13.40
2023-05-02T22:50:48.760Z,13.30
2023-05-02T22:53:21.757Z,13.30
2023-05-02T22:55:50.044Z,13.30
2023-05-02T22:58:19.750Z,13.20
2023-05-02T23:00:47.993Z,13.20
2023-05-02T23:03:16.222Z,13.20
2023-05-02T23:05:44.527Z,13.10
2023-05-02T23:08:12.716Z,13.10
2023-05-02T23:10:40.991Z,13.00
2023-05-02T23:13:09.242Z,13.00
2023-05-02T23:15:40.249Z,13.00
2023-05-02T23:18:08.677Z,12.90
2023-05-02T23:20:36.925Z,13.00
2023-05-02T23:23:05.307Z,12.90
2023-05-02T23:25:36.011Z,12.90
2023-05-02T23:28:04.336Z,12.80
2023-05-02T23:30:33.230Z,12.80
2023-05-02T23:33:02.945Z,12.80
2023-05-02T23:35:32.382Z,12.80
2023-05-02T23:38:01.154Z,12.80
2023-05-02T23:40:29.561Z,12.70
2023-05-02T23:42:57.775Z,12.70
2023-05-02T23:45:26.031Z,12.70
2023-05-02T23:47:54.212Z,12.70
2023-05-02T23:50:23.808Z,12.60
2023-05-02T23:52:56.430Z,12.60
2023-05-02T23:55:24.646Z,12.60
2023-05-02T23:57:52.873Z,12.60
